Time;durP1;ratioP1;P1;durP2;ratioP2;P2;SDS_P1;SDS_P2;PMS_P1;PMS_P2;Temp;Humidity;BMP_temperature;BMP_pressure;BME280_temperature;BME280_humidity;BME280_pressure;Samples;Min_cycle;Max_cycle;Signal;HPM_P1;HPM_P2
2022/05/12 00:00:12;;;;;;;10.35;5.30;;;;;;;14.59;74.28;99332.97;4453482;32;35106;-73
2022/05/12 00:02:40;;;;;;;11.43;6.15;;;;;;;14.74;74.00;99342.16;4462483;32;34429;-73
2022/05/12 00:05:08;;;;;;;9.00;5.97;;;;;;;15.02;73.24;99335.25;4455582;32;34288;-74
2022/05/12 00:07:37;;;;;;;10.25;5.75;;;;;;;15.34;71.78;99337.81;4458815;32;34825;-73
2022/05/12 00:10:08;;;;;;;10.00;5.78;;;;;;;15.32;71.75;99344.87;4470888;32;35254;-69
2022/05/12 00:12:37;;;;;;;8.05;5.43;;;;;;;14.65;74.80;99336.31;4464939;32;35336;-70
2022/05/12 00:15:08;;;;;;;8.48;5.68;;;;;;;14.96;74.12;99326.69;4471199;32;33646;-74
2022/05/12 00:17:37;;;;;;;10.57;5.68;;;;;;;15.12;73.35;99334.09;4469861;32;33936;-74
2022/05/12 00:20:05;;;;;;;10.00;6.03;;;;;;;15.11;73.27;99332.41;4468202;32;35147;-74
2022/05/12 00:22:33;;;;;;;8.70;5.90;;;;;;;15.52;71.49;99327.66;4454841;32;34461;-73
2022/05/12 00:25:01;;;;;;;10.98;5.85;;;;;;;15.02;73.38;99324.78;4455518;32;33568;-67
2022/05/12 00:27:29;;;;;;;10.95;6.03;;;;;;;14.82;74.02;99325.38;4455230;32;34045;-73
2022/05/12 00:29:56;;;;;;;8.43;5.75;;;;;;;15.48;71.38;99326.03;4454786;32;35044;-72
2022/05/12 00:32:24;;;;;;;12.25;5.75;;;;;;;15.06;73.11;99318.56;4455061;32;34580;-74
2022/05/12 00:34:52;;;;;;;10.93;7.18;;;;;;;15.23;72.23;99316.28;4454866;32;33426;-73
2022/05/12 00:37:20;;;;;;;10.45;6.18;;;;;;;14.89;73.36;99325.13;4455360;32;34032;-74
2022/05/12 00:39:48;;;;;;;10.55;6.12;;;;;;;13.94;77.20;99315.44;4470639;32;35051;-74
2022/05/12 00:42:16;;;;;;;9.85;6.45;;;;;;;14.47;76.22;99316.66;4469710;32;35367;-73
2022/05/12 00:44:43;;;;;;;8.30;5.87;;;;;;;14.55;76.09;99312.94;4455274;32;33589;-74
2022/05/12 00:47:11;;;;;;;11.25;7.37;;;;;;;15.15;73.85;99315.66;4454422;32;34024;-71
2022/05/12 00:49:40;;;;;;;10.77;6.85;;;;;;;14.80;75.61;99320.16;4468821;32;35900;-73
2022/05/12 00:52:17;;;;;;;10.25;6.35;;;;;;;15.61;71.97;99324.72;4454698;32;34480;-73
2022/05/12 00:54:59;;;;;;;13.95;6.32;;;;;;;16.04;70.74;99326.00;4441456;32;34310;-70
2022/05/12 00:57:32;;;;;;;8.75;5.82;;;;;;;16.16;69.28;99321.25;4455247;32;34081;-73
2022/05/12 01:00:01;;;;;;;12.07;5.85;;;;;;;16.43;68.97;99320.31;4471064;32;35760;-74
2022/05/12 01:02:31;;;;;;;12.37;5.47;;;;;;;16.78;65.78;99317.31;4468935;32;34447;-73
2022/05/12 01:05:00;;;;;;;7.65;5.00;;;;;;;17.17;64.40;99311.50;4453491;32;34364;-68
2022/05/12 01:07:28;;;;;;;10.07;5.60;;;;;;;17.21;63.45;99308.72;4452849;32;33715;-74
2022/05/12 01:09:56;;;;;;;9.70;5.50;;;;;;;17.42;62.95;99317.53;4454961;32;36047;-72
2022/05/12 01:12:25;;;;;;;7.57;5.20;;;;;;;17.49;62.30;99318.16;4454539;32;34488;-73
2022/05/12 01:14:53;;;;;;;10.57;5.72;;;;;;;17.81;61.49;99314.22;4454873;32;34366;-74
2022/05/12 01:17:23;;;;;;;9.13;5.25;;;;;;;18.09;60.11;99318.41;4454938;32;34735;-72
2022/05/12 01:19:51;;;;;;;8.75;5.82;;;;;;;18.09;60.14;99314.87;4455249;32;35039;-74
2022/05/12 01:23:00;;;;;;;13.07;5.37;;;;;;;18.28;59.09;99313.22;4455741;32;34383;-75
2022/05/12 01:25:30;;;;;;;8.63;4.75;;;;;;;17.94;60.48;99319.03;4454423;32;33501;-74
2022/05/12 01:27:58;;;;;;;8.07;4.65;;;;;;;18.26;59.04;99315.03;4457526;32;34639;-67
2022/05/12 01:30:26;;;;;;;7.20;5.05;;;;;;;18.23;59.40;99311.66;4470481;32;35805;-73
2022/05/12 01:32:53;;;;;;;8.98;5.45;;;;;;;18.12;59.78;99314.75;4466982;32;35276;-74
2022/05/12 01:35:24;;;;;;;7.55;5.18;;;;;;;18.18;59.35;99312.72;4455055;32;33598;-74
2022/05/12 01:37:52;;;;;;;8.35;5.03;;;;;;;18.25;58.79;99313.34;4456233;32;34849;-73
2022/05/12 01:40:22;;;;;;;7.43;4.93;;;;;;;18.24;59.27;99316.88;4466341;32;35007;-74
2022/05/12 01:42:52;;;;;;;9.05;5.07;;;;;;;18.38;58.28;99308.37;4455408;32;34427;-73
2022/05/12 01:45:21;;;;;;;10.32;5.53;;;;;;;18.18;58.78;99314.53;4470549;32;33373;-74
2022/05/12 01:47:50;;;;;;;9.70;5.28;;;;;;;18.20;59.09;99315.31;4469168;32;34626;-73
2022/05/12 01:50:20;;;;;;;7.37;4.93;;;;;;;18.31;58.37;99302.50;4470349;32;35130;-73
2022/05/12 01:52:48;;;;;;;8.27;4.90;;;;;;;18.45;57.94;99312.47;4468780;32;34480;-68
2022/05/12 01:55:19;;;;;;;8.27;4.93;;;;;;;18.30;58.62;99305.22;4468295;32;33404;-74
2022/05/12 01:57:47;;;;;;;7.05;4.70;;;;;;;18.34;58.24;99306.81;4454501;32;33875;-68
2022/05/12 02:00:18;;;;;;;7.32;5.22;;;;;;;18.53;58.14;99302.44;4454845;32;34944;-74
2022/05/12 02:02:47;;;;;;;9.40;5.07;;;;;;;18.31;58.08;99297.25;4459783;32;34377;-68
2022/05/12 02:05:16;;;;;;;7.90;4.55;;;;;;;18.19;58.32;99303.91;4454795;32;33626;-68
2022/05/12 02:07:45;;;;;;;7.95;5.43;;;;;;;18.15;58.37;99294.41;4454217;32;33785;-74
2022/05/12 02:10:20;;;;;;;8.40;5.40;;;;;;;18.16;58.16;99293.50;4468128;32;35147;-74
2022/05/12 02:12:48;;;;;;;9.75;5.47;;;;;;;18.29;58.08;99283.28;4454634;32;34541;-73
2022/05/12 02:15:17;;;;;;;7.85;5.20;;;;;;;17.98;58.87;99279.34;4470292;32;33401;-73
2022/05/12 02:17:45;;;;;;;7.65;4.65;;;;;;;17.80;59.40;99285.31;4468970;32;34045;-73
2022/05/12 02:20:13;;;;;;;7.78;5.03;;;;;;;18.26;58.11;99278.13;4457602;32;35103;-73
2022/05/12 02:22:41;;;;;;;8.65;4.95;;;;;;;18.18;58.37;99275.00;4469388;32;34482;-73
2022/05/12 02:25:10;;;;;;;7.72;4.82;;;;;;;18.30;58.30;99277.09;4453554;32;33476;-73
2022/05/12 02:27:42;;;;;;;6.78;4.78;;;;;;;17.97;59.18;99288.12;4466984;32;34008;-74
2022/05/12 02:30:12;;;;;;;6.80;4.43;;;;;;;17.93;58.63;99280.41;4454403;32;35742;-74
2022/05/12 02:32:40;;;;;;;7.40;5.00;;;;;;;17.71;59.34;99289.19;4454395;32;33733;-74
2022/05/12 02:35:09;;;;;;;8.52;5.10;;;;;;;18.05;58.51;99289.59;4469084;32;32447;-67
2022/05/12 02:37:38;;;;;;;11.20;5.28;;;;;;;17.90;58.19;99286.69;4468593;32;33909;-74
2022/05/12 02:40:07;;;;;;;6.37;4.45;;;;;;;17.91;58.60;99291.06;4440289;32;34974;-74
2022/05/12 02:42:35;;;;;;;6.70;4.90;;;;;;;17.94;58.16;99290.91;4453674;32;35039;-73
2022/05/12 02:45:04;;;;;;;8.52;5.40;;;;;;;17.60;60.46;99287.00;4467987;32;34343;-73
2022/05/12 02:47:33;;;;;;;8.00;5.68;;;;;;;17.19;61.94;99294.75;4470015;32;33618;-74
2022/05/12 02:50:01;;;;;;;7.70;5.57;;;;;;;16.98;62.56;99291.16;4455031;32;35853;-74
2022/05/12 02:52:28;;;;;;;8.07;5.45;;;;;;;17.36;60.82;99295.88;4453652;32;34582;-74
2022/05/12 02:54:56;;;;;;;8.70;5.70;;;;;;;16.56;63.18;99304.94;4453086;32;33753;-73
2022/05/12 02:57:24;;;;;;;9.93;6.07;;;;;;;16.47;63.13;99300.87;4454124;32;34822;-74
2022/05/12 02:59:52;;;;;;;9.55;5.82;;;;;;;16.09;64.36;99303.09;4454325;32;34968;-73
2022/05/12 03:02:20;;;;;;;7.40;5.57;;;;;;;15.79;66.19;99309.34;4454121;32;34498;-74
2022/05/12 03:04:48;;;;;;;21.40;10.40;;;;;;;16.34;63.91;99309.25;4465480;32;34392;-68
2022/05/12 03:07:17;;;;;;;14.38;7.43;;;;;;;16.49;63.33;99311.34;4469593;32;34092;-74
2022/05/12 03:09:45;;;;;;;14.35;7.97;;;;;;;16.42;63.73;99315.09;4457977;32;35987;-74
2022/05/12 03:12:13;;;;;;;13.45;7.32;;;;;;;16.26;64.37;99320.03;4456945;32;34594;-73
2022/05/12 03:14:40;;;;;;;9.88;6.32;;;;;;;16.47;63.65;99319.28;4457553;32;33642;-68
2022/05/12 03:17:08;;;;;;;12.75;7.15;;;;;;;16.72;63.08;99321.03;4453426;32;34807;-73
2022/05/12 03:19:37;;;;;;;9.50;5.82;;;;;;;16.52;63.83;99323.50;4463313;32;34839;-74
2022/05/12 03:22:04;;;;;;;11.40;5.93;;;;;;;16.66;63.33;99323.91;4469172;32;34638;-74
2022/05/12 03:24:33;;;;;;;11.27;5.72;;;;;;;15.94;65.45;99327.22;4467833;32;33311;-73
2022/05/12 03:27:01;;;;;;;11.20;5.50;;;;;;;16.16;65.10;99326.50;4467648;32;34757;-69
2022/05/12 03:29:28;;;;;;;10.38;6.28;;;;;;;16.11;65.38;99318.75;4464808;32;35165;-72
2022/05/12 03:31:57;;;;;;;10.90;6.62;;;;;;;15.89;66.30;99322.13;4453137;32;33292;-74
2022/05/12 03:34:25;;;;;;;7.75;4.68;;;;;;;15.54;67.68;99317.97;4453148;32;33520;-68
2022/05/12 03:36:53;;;;;;;7.32;4.70;;;;;;;16.04;66.17;99315.50;4454073;32;33975;-73
2022/05/12 03:39:21;;;;;;;7.87;4.97;;;;;;;16.31;64.76;99318.09;4462515;32;35054;-74
2022/05/12 03:41:49;;;;;;;7.60;5.07;;;;;;;15.81;66.35;99321.53;4469998;32;35332;-74
2022/05/12 03:47:03;;;;;;;10.32;5.43;;;;;;;15.45;67.70;99318.25;4460628;32;34773;-73
2022/05/12 03:49:31;;;;;;;14.25;6.00;;;;;;;15.53;68.36;99324.13;4463159;32;34934;-74
2022/05/12 03:51:59;;;;;;;10.77;6.47;;;;;;;15.25;70.38;99322.34;4469491;32;34544;-69
2022/05/12 03:54:27;;;;;;;15.80;7.75;;;;;;;15.65;69.52;99326.38;4462098;32;33480;-74
2022/05/12 03:56:54;;;;;;;13.98;7.93;;;;;;;15.40;70.85;99325.41;4455737;32;34734;-70
2022/05/12 03:59:23;;;;;;;10.15;6.22;;;;;;;15.63;70.53;99327.31;4454991;32;36023;-73
2022/05/12 04:01:51;;;;;;;18.85;8.43;;;;;;;15.66;70.29;99325.44;4454723;32;34405;-72
2022/05/12 04:04:19;;;;;;;9.63;6.55;;;;;;;15.79;70.94;99328.56;4455100;32;34240;-74
2022/05/12 04:06:47;;;;;;;10.52;6.00;;;;;;;15.64;72.50;99335.16;4455308;32;33699;-74
2022/05/12 04:09:14;;;;;;;7.53;4.82;;;;;;;16.27;69.32;99337.50;4454503;32;35922;-69
2022/05/12 04:11:43;;;;;;;10.40;6.03;;;;;;;15.96;71.17;99340.31;4455393;32;34600;-70
2022/05/12 04:14:10;;;;;;;8.13;5.40;;;;;;;16.62;69.12;99341.53;4455066;32;33446;-68
2022/05/12 04:16:39;;;;;;;10.80;6.35;;;;;;;16.42;69.74;99341.38;4455443;32;33912;-68
2022/05/12 04:19:07;;;;;;;11.00;5.85;;;;;;;16.39;71.45;99344.09;4462365;32;35925;-70
2022/05/12 04:21:35;;;;;;;10.10;6.40;;;;;;;16.22;71.75;99337.66;4470932;32;34519;-74
2022/05/12 04:24:05;;;;;;;10.25;6.87;;;;;;;16.54;70.46;99343.59;4469660;32;33569;-74
2022/05/12 04:26:38;;;;;;;11.23;6.65;;;;;;;16.71;68.96;99350.00;4467706;32;34820;-73
2022/05/12 04:29:07;;;;;;;8.52;5.37;;;;;;;16.77;66.80;99348.00;4454515;32;35019;-75
2022/05/12 04:31:35;;;;;;;10.60;5.90;;;;;;;16.68;67.77;99356.25;4455294;32;34481;-75
2022/05/12 04:36:50;;;;;;;10.95;5.97;;;;;;;17.81;66.49;99350.25;4456197;32;34708;-68
2022/05/12 04:39:18;;;;;;;13.35;5.97;;;;;;;17.99;68.01;99356.59;4459784;32;35071;-75
2022/05/12 04:41:46;;;;;;;9.80;5.62;;;;;;;17.35;69.02;99358.19;4470830;32;34386;-75
2022/05/12 04:44:14;;;;;;;6.78;4.87;;;;;;;18.22;67.28;99363.53;4450941;32;33521;-75
2022/05/12 04:46:42;;;;;;;11.07;5.20;;;;;;;18.00;66.71;99368.84;4455186;32;34858;-75
2022/05/12 04:49:11;;;;;;;7.72;5.20;;;;;;;18.06;66.49;99373.00;4457116;32;35867;-69
2022/05/12 04:51:40;;;;;;;8.43;5.85;;;;;;;18.27;66.96;99369.47;4458101;32;34502;-74
2022/05/12 04:54:09;;;;;;;8.15;5.60;;;;;;;18.47;64.95;99367.78;4455078;32;33302;-75
2022/05/12 04:56:38;;;;;;;11.27;6.07;;;;;;;19.37;59.56;99367.34;4455104;32;33924;-74
2022/05/12 04:59:07;;;;;;;8.00;5.40;;;;;;;18.94;61.62;99373.63;4464347;32;35997;-75
2022/05/12 05:01:36;;;;;;;10.02;5.87;;;;;;;20.10;58.32;99373.56;4453796;32;35033;-76
2022/05/12 05:04:04;;;;;;;8.27;5.72;;;;;;;20.04;58.96;99379.12;4465535;32;33582;-76
2022/05/12 05:06:32;;;;;;;7.40;5.47;;;;;;;19.34;60.91;99370.97;4470474;32;34090;-75
2022/05/12 05:09:00;;;;;;;12.37;6.25;;;;;;;19.37;60.38;99373.47;4469229;32;35975;-69
2022/05/12 05:11:28;;;;;;;8.48;5.10;;;;;;;19.36;59.47;99377.06;4470476;32;34531;-69
2022/05/12 05:13:56;;;;;;;7.82;5.25;;;;;;;19.73;60.37;99374.44;4468992;32;33386;-73
2022/05/12 05:16:24;;;;;;;10.13;5.72;;;;;;;19.56;62.89;99372.62;4470489;32;33876;-71
2022/05/12 05:18:52;;;;;;;8.60;5.87;;;;;;;20.11;59.66;99379.69;4468418;32;34928;-76
2022/05/12 05:21:20;;;;;;;8.70;5.20;;;;;;;20.92;57.33;99377.38;4468449;32;34498;-72
2022/05/12 05:23:48;;;;;;;9.02;6.10;;;;;;;21.53;55.39;99378.50;4468119;32;33766;-75
2022/05/12 05:26:15;;;;;;;8.38;5.93;;;;;;;20.88;56.88;99379.31;4470561;32;34889;-68
2022/05/12 05:28:44;;;;;;;8.52;5.18;;;;;;;21.18;55.48;99381.28;4469678;32;35973;-76
2022/05/12 05:31:12;;;;;;;9.70;5.22;;;;;;;22.18;52.36;99380.16;4454927;32;34401;-75
2022/05/12 05:33:39;;;;;;;9.32;5.32;;;;;;;22.01;52.84;99384.66;4454910;32;33593;-71
2022/05/12 05:36:07;;;;;;;9.95;5.30;;;;;;;21.13;53.54;99389.47;4456223;32;32906;-76
2022/05/12 05:38:35;;;;;;;8.07;5.53;;;;;;;21.49;54.50;99387.56;4469049;32;35797;-76
2022/05/12 05:41:03;;;;;;;9.75;5.43;;;;;;;21.88;55.05;99378.31;4469278;32;34379;-75
2022/05/12 05:43:31;;;;;;;9.95;5.40;;;;;;;21.65;54.99;99377.81;4470520;32;33443;-68
2022/05/12 05:45:58;;;;;;;10.45;5.05;;;;;;;21.54;53.66;99375.78;4455845;32;34021;-76
2022/05/12 05:48:26;;;;;;;6.45;5.03;;;;;;;22.24;51.09;99374.53;4455104;32;35911;-76
2022/05/12 05:53:41;;;;;;;8.65;4.80;;;;;;;22.90;50.18;99379.41;4469156;32;33632;-76
2022/05/12 05:56:17;;;;;;;8.75;5.55;;;;;;;23.71;46.33;99379.75;4454403;32;34790;-76
2022/05/12 05:58:46;;;;;;;5.90;4.47;;;;;;;23.48;46.23;99384.72;4454851;32;35107;-76
2022/05/12 06:01:15;;;;;;;9.98;4.68;;;;;;;24.06;46.41;99384.63;4453278;32;33191;-76
2022/05/12 06:03:45;;;;;;;8.05;4.60;;;;;;;24.79;43.39;99384.13;4454801;32;34393;-76
2022/05/12 06:06:13;;;;;;;7.37;4.12;;;;;;;24.66;43.85;99383.28;4440807;32;34831;-76
2022/05/12 06:08:40;;;;;;;7.10;4.37;;;;;;;25.08;42.78;99383.94;4454719;32;36073;-68
2022/05/12 06:14:36;;;;;;;9.65;5.45;;;;;;;25.30;43.58;99388.63;5033371;27;20416;-76
2022/05/12 06:17:05;;;;;;;11.25;4.78;;;;;;;25.15;42.21;99388.72;4386778;32;34831;-77
2022/05/12 06:19:36;;;;;;;9.13;5.35;;;;;;;25.42;41.65;99387.75;4387252;32;34944;-78
2022/05/12 06:22:07;;;;;;;8.23;5.18;;;;;;;24.87;43.18;99392.47;4377012;32;34106;-75
2022/05/12 06:24:38;;;;;;;9.88;6.20;;;;;;;25.39;41.51;99392.44;4378149;32;34150;-76
2022/05/12 06:27:07;;;;;;;9.40;5.60;;;;;;;25.17;42.74;99383.28;4378574;32;34821;-75
2022/05/12 06:29:36;;;;;;;11.43;5.62;;;;;;;25.38;44.11;99394.28;4378272;32;35050;-76
2022/05/12 06:32:06;;;;;;;12.00;5.32;;;;;;;25.03;44.01;99391.41;4378241;32;35313;-75
2022/05/12 06:34:35;;;;;;;9.52;5.47;;;;;;;25.47;42.49;99396.28;4378160;32;33479;-76
2022/05/12 06:37:04;;;;;;;9.40;5.65;;;;;;;25.96;41.26;99389.22;4377999;32;32836;-76
2022/05/12 06:39:32;;;;;;;8.90;5.32;;;;;;;25.61;41.18;99391.78;4378064;32;35032;-76
2022/05/12 06:42:01;;;;;;;8.70;5.60;;;;;;;24.50;43.43;99394.09;4377892;32;34483;-75
2022/05/12 06:44:34;;;;;;;8.57;5.50;;;;;;;24.54;44.96;99400.94;4378199;32;32274;-76
2022/05/12 06:47:10;;;;;;;12.02;5.90;;;;;;;25.33;42.07;99404.41;4377995;32;34657;-73
2022/05/12 06:49:38;;;;;;;12.37;5.35;;;;;;;25.89;40.69;99403.94;4378086;32;34953;-76
2022/05/12 06:52:09;;;;;;;11.20;5.75;;;;;;;26.02;41.18;99402.09;4376736;32;35255;-75
2022/05/12 06:54:38;;;;;;;15.30;5.87;;;;;;;26.72;39.05;99412.94;4389071;32;34398;-76
2022/05/12 06:57:10;;;;;;;7.97;5.05;;;;;;;25.43;42.38;99405.47;4389032;32;33238;-75
2022/05/12 06:59:40;;;;;;;7.93;5.43;;;;;;;26.14;41.87;99403.00;4389269;32;33549;-75
2022/05/12 07:02:12;;;;;;;11.48;5.18;;;;;;;25.23;42.51;99408.63;4376402;32;34837;-76
2022/05/12 07:04:45;;;;;;;8.15;5.20;;;;;;;25.72;42.63;99405.16;4377826;32;32704;-75
2022/05/12 07:07:15;;;;;;;7.87;5.32;;;;;;;26.51;39.60;99392.22;4377785;32;34199;-76
2022/05/12 07:09:45;;;;;;;8.68;5.72;;;;;;;26.24;41.64;99396.03;4377825;32;34287;-77
2022/05/12 07:12:20;;;;;;;9.30;4.90;;;;;;;26.24;42.11;99390.69;4389266;32;34489;-76
2022/05/12 07:14:51;;;;;;;7.62;4.45;;;;;;;26.93;38.58;99389.91;4390488;32;33064;-75
2022/05/12 07:17:20;;;;;;;11.25;5.32;;;;;;;27.00;37.27;99388.47;4379703;32;34884;-75
2022/05/12 07:19:49;;;;;;;9.60;5.78;;;;;;;26.39;41.38;99390.50;4377497;32;35769;-76
2022/05/12 07:27:52;;;;;;;11.00;4.70;;;;;;;27.35;37.37;99398.19;4376537;32;33190;-77
2022/05/12 07:30:21;;;;;;;10.13;5.10;;;;;;;27.21;38.20;99396.63;4378525;32;35044;-77
2022/05/12 07:32:49;;;;;;;11.02;5.35;;;;;;;27.09;39.46;99394.03;4378584;32;35164;-76
2022/05/12 07:35:18;;;;;;;7.85;5.25;;;;;;;27.68;36.46;99393.81;4378894;32;33566;-76
2022/05/12 07:37:47;;;;;;;7.50;5.70;;;;;;;27.59;37.80;99390.03;4378975;32;33920;-77
2022/05/12 07:40:15;;;;;;;8.23;4.35;;;;;;;27.60;38.18;99388.22;4379434;32;35930;-76
2022/05/12 07:42:44;;;;;;;7.47;5.53;;;;;;;27.88;39.13;99391.31;4377294;32;34428;-76
2022/05/12 07:45:12;;;;;;;8.55;4.87;;;;;;;28.21;35.47;99392.22;4378129;32;33568;-75
2022/05/12 07:47:40;;;;;;;10.90;5.32;;;;;;;27.50;36.90;99387.28;4377689;32;34659;-75
2022/05/12 07:50:09;;;;;;;12.10;5.45;;;;;;;27.45;38.11;99381.44;4379360;32;34789;-75
2022/05/12 07:52:39;;;;;;;8.50;4.57;;;;;;;27.62;38.83;99386.28;4378429;32;35263;-76
2022/05/12 07:55:07;;;;;;;9.88;5.05;;;;;;;28.79;35.72;99383.78;4378052;32;33033;-76
2022/05/12 07:57:36;;;;;;;8.82;4.75;;;;;;;28.20;38.77;99395.88;4378476;32;33924;-76
2022/05/12 08:00:05;;;;;;;12.98;4.70;;;;;;;28.89;36.42;99395.41;4379279;32;34932;-76
2022/05/12 08:02:38;;;;;;;7.60;4.93;;;;;;;28.65;35.48;99393.00;4376411;32;35336;-76
2022/05/12 08:05:09;;;;;;;7.05;4.80;;;;;;;28.74;34.85;99397.56;4389533;32;33255;-76
2022/05/12 08:07:37;;;;;;;7.75;4.40;;;;;;;28.98;35.17;99399.09;4377104;32;34083;-76
2022/05/12 08:10:05;;;;;;;6.37;4.07;;;;;;;29.23;34.93;99392.50;4379346;32;35206;-76
2022/05/12 08:12:35;;;;;;;11.88;4.93;;;;;;;29.18;35.89;99400.94;4378594;32;34640;-76
2022/05/12 08:15:04;;;;;;;8.07;4.47;;;;;;;29.36;34.90;99397.63;4378969;32;33600;-76
2022/05/12 08:17:32;;;;;;;6.22;4.37;;;;;;;30.17;34.02;99392.19;4377329;32;34077;-77
2022/05/12 08:20:00;;;;;;;9.57;4.50;;;;;;;29.59;35.86;99401.78;4378559;32;35148;-76
2022/05/12 08:22:28;;;;;;;9.48;4.40;;;;;;;30.00;34.67;99391.91;4377822;32;34516;-76
2022/05/12 08:24:57;;;;;;;6.62;4.35;;;;;;;29.74;35.44;99401.41;4378623;32;34459;-76
2022/05/12 08:27:25;;;;;;;7.78;4.50;;;;;;;29.78;34.98;99402.88;4378236;32;34763;-76
2022/05/12 08:29:54;;;;;;;8.27;5.07;;;;;;;30.28;32.85;99394.72;4379076;32;35767;-76
2022/05/12 08:32:21;;;;;;;9.07;4.95;;;;;;;29.68;34.51;99400.13;4364797;32;34456;-76
2022/05/12 08:34:49;;;;;;;9.52;4.70;;;;;;;29.86;33.70;99394.97;4378036;32;33433;-73
2022/05/12 08:37:18;;;;;;;7.03;5.03;;;;;;;29.25;34.83;99396.75;4377259;32;33666;-73
2022/05/12 08:39:46;;;;;;;8.30;4.85;;;;;;;29.27;34.79;99401.97;4379040;32;35164;-73
2022/05/12 08:42:23;;;;;;;6.85;4.75;;;;;;;29.03;36.67;99412.97;4378011;32;34591;-74
2022/05/12 08:44:51;;;;;;;7.37;4.40;;;;;;;29.56;34.59;99404.78;4390265;32;33756;-73
2022/05/12 08:47:27;;;;;;;8.23;4.35;;;;;;;30.16;32.64;99409.28;4389151;32;34227;-73
2022/05/12 08:49:55;;;;;;;6.47;4.35;;;;;;;29.92;34.42;99409.69;4378087;32;35217;-73
2022/05/12 08:52:29;;;;;;;11.95;4.68;;;;;;;29.81;34.69;99416.88;4364814;32;34636;-73
2022/05/12 08:55:07;;;;;;;5.80;4.12;;;;;;;30.97;33.73;99415.22;4378779;32;34134;-73
2022/05/12 08:58:03;;;;;;;10.77;4.68;;;;;;;31.10;33.20;99412.19;4365519;32;34077;-73
2022/05/12 09:00:38;;;;;;;9.20;5.25;;;;;;;29.25;37.30;99418.19;4359113;32;34908;-73
2022/05/12 09:03:25;;;;;;;7.12;4.22;;;;;;;30.29;34.45;99409.84;4377560;32;35238;-76
2022/05/12 09:06:03;;;;;;;6.37;4.70;;;;;;;30.02;38.42;99410.53;4378741;32;34046;-74
2022/05/12 09:08:55;;;;;;;5.97;4.25;;;;;;;30.51;32.79;99415.94;4376722;32;34708;-73
2022/05/12 09:11:29;;;;;;;9.02;4.78;;;;;;;30.29;33.52;99417.06;4378651;32;36053;-74
2022/05/12 09:13:59;;;;;;;9.75;4.43;;;;;;;30.88;33.60;99409.81;4365290;32;34560;-73
2022/05/12 09:16:32;;;;;;;10.13;4.60;;;;;;;31.08;32.17;99408.81;4352937;32;33441;-74
2022/05/12 09:19:01;;;;;;;11.63;5.10;;;;;;;30.43;34.60;99411.31;4363769;32;33905;-75
2022/05/12 09:21:32;;;;;;;8.25;4.60;;;;;;;30.56;37.79;99413.69;4363808;32;35043;-75
2022/05/12 09:24:03;;;;;;;15.00;5.80;;;;;;;30.79;36.76;99419.59;4378055;32;34462;-74
2022/05/12 09:26:43;;;;;;;13.57;4.32;;;;;;;31.63;32.26;99417.94;4377481;32;33506;-73
2022/05/12 09:29:11;;;;;;;7.43;4.18;;;;;;;31.77;31.17;99413.87;4362565;32;34795;-75
2022/05/12 09:31:41;;;;;;;8.77;4.82;;;;;;;31.31;32.17;99422.72;4357983;32;188334;-74
2022/05/12 09:34:27;;;;;;;8.95;4.68;;;;;;;31.33;31.91;99409.97;4365058;32;34564;-75
2022/05/12 09:36:56;;;;;;;8.43;4.32;;;;;;;30.98;33.38;99419.56;4376687;32;33494;-75
2022/05/12 09:39:37;;;;;;;9.52;5.15;;;;;;;31.03;34.12;99423.69;4377531;32;33924;-75
2022/05/12 09:42:14;;;;;;;10.23;4.50;;;;;;;30.78;33.64;99416.06;4352937;32;35078;-75
2022/05/12 09:44:54;;;;;;;6.55;4.28;;;;;;;31.50;36.03;99413.78;4378602;32;34513;-75
2022/05/12 09:47:23;;;;;;;6.87;4.50;;;;;;;31.54;34.79;99415.16;4377828;32;33534;-75
2022/05/12 09:49:51;;;;;;;8.80;4.75;;;;;;;31.46;33.34;99408.78;4365219;32;34001;-75
2022/05/12 09:52:35;;;;;;;8.00;4.87;;;;;;;30.60;37.27;99413.28;4377644;32;35196;-77
2022/05/12 09:55:15;;;;;;;6.03;4.40;;;;;;;31.74;35.02;99409.66;4377494;32;34607;-74
2022/05/12 09:58:04;;;;;;;8.40;4.43;;;;;;;31.73;33.71;99407.94;4376280;32;33497;-75
2022/05/12 10:00:37;;;;;;;7.12;4.62;;;;;;;31.99;32.93;99404.53;4364472;32;34081;-76
2022/05/12 10:09:20;;;;;;;8.95;4.68;;;;;;;32.14;31.74;99403.03;4366346;32;33317;-74
2022/05/12 10:12:02;;;;;;;8.68;4.85;;;;;;;32.02;31.26;99394.31;4376694;32;34018;-75
2022/05/12 10:14:38;;;;;;;8.02;4.37;;;;;;;32.92;30.96;99394.25;4378466;32;35909;-75
2022/05/12 10:17:19;;;;;;;8.65;4.10;;;;;;;32.26;31.93;99382.94;4377493;32;35093;-74
2022/05/12 10:19:48;;;;;;;7.93;4.68;;;;;;;32.62;31.44;99385.63;4387906;32;34369;-74
2022/05/12 10:22:18;;;;;;;7.15;4.30;;;;;;;32.76;30.03;99372.56;4364204;32;33902;-74
2022/05/12 10:25:05;;;;;;;8.35;4.35;;;;;;;32.31;30.59;99377.94;4378291;32;35970;-75
2022/05/12 10:28:00;;;;;;;7.45;4.68;;;;;;;31.31;34.03;99371.62;4375281;32;35167;-75
2022/05/12 10:30:41;;;;;;;6.68;4.12;;;;;;;32.57;33.27;99387.06;4365327;32;34447;-74
2022/05/12 10:33:27;;;;;;;6.90;4.62;;;;;;;32.88;29.44;99379.41;4376293;32;34036;-74
2022/05/12 10:36:12;;;;;;;8.07;4.43;;;;;;;33.03;31.39;99372.38;4377103;32;35034;-74
2022/05/12 10:39:01;;;;;;;6.70;4.22;;;;;;;32.91;29.55;99373.66;4373007;32;35339;-75
2022/05/12 10:41:54;;;;;;;10.40;4.45;;;;;;;32.36;33.59;99377.47;4377016;32;33324;-74
2022/05/12 10:44:40;;;;;;;6.10;4.22;;;;;;;32.72;29.93;99372.03;4363090;32;34089;-76
2022/05/12 10:47:51;;;;;;;9.55;4.57;;;;;;;32.91;32.38;99370.97;4364165;32;35003;-75
2022/05/12 10:50:45;;;;;;;8.23;4.03;;;;;;;33.67;29.37;99372.03;4376969;32;34589;-76
2022/05/12 10:53:35;;;;;;;7.20;4.37;;;;;;;33.37;33.08;99371.56;4371462;32;34292;-85
2022/05/12 10:56:27;;;;;;;6.62;3.87;;;;;;;33.18;30.02;99377.19;4363621;32;34007;-75
2022/05/12 10:59:17;;;;;;;6.22;4.03;;;;;;;33.67;27.51;99369.31;4376871;32;35969;-83
2022/05/12 11:01:51;;;;;;;5.62;3.90;;;;;;;34.00;27.02;99366.69;4363024;32;34581;-86
2022/05/12 11:04:41;;;;;;;7.80;4.45;;;;;;;33.56;29.43;99366.91;4377786;32;34299;-83
2022/05/12 11:07:27;;;;;;;8.77;4.97;;;;;;;33.88;31.52;99363.47;4376674;32;34194;-81
2022/05/12 11:10:02;;;;;;;9.75;4.20;;;;;;;33.49;29.22;99357.78;4351237;32;35083;-89
2022/05/12 11:12:40;;;;;;;6.45;4.05;;;;;;;33.98;31.59;99353.34;4376999;32;35261;-86
2022/05/12 11:15:15;;;;;;;8.05;3.67;;;;;;;34.11;28.75;99352.84;4374348;32;33347;-82
2022/05/12 11:17:55;;;;;;;6.90;3.80;;;;;;;34.63;28.29;99357.09;4363349;32;33900;-74
2022/05/12 11:20:32;;;;;;;7.32;3.60;;;;;;;33.91;30.09;99344.22;4377576;32;35824;-81
2022/05/12 11:23:13;;;;;;;4.90;3.60;;;;;;;33.37;31.54;99344.59;4376629;32;35273;-87
2022/05/12 11:25:54;;;;;;;6.85;4.00;;;;;;;34.39;32.78;99341.72;4376308;32;34536;-82
2022/05/12 11:31:32;;;;;;;5.22;3.58;;;;;;;34.35;29.52;99334.97;4365042;32;35041;-77
2022/05/12 11:34:08;;;;;;;5.80;3.50;;;;;;;33.68;28.86;99333.22;4376389;32;34373;-84
2022/05/12 11:36:37;;;;;;;6.93;3.92;;;;;;;33.68;30.10;99330.50;4376267;32;33442;-74
2022/05/12 11:39:29;;;;;;;5.78;3.17;;;;;;;34.03;28.50;99325.84;4376393;32;33795;-74
2022/05/12 11:42:17;;;;;;;6.68;3.35;;;;;;;34.15;29.85;99327.19;4362518;32;34831;-76
2022/05/12 11:44:59;;;;;;;5.82;3.47;;;;;;;34.27;27.83;99321.47;4361032;32;33002;-74
2022/05/12 11:47:43;;;;;;;7.28;3.92;;;;;;;34.23;27.88;99328.22;4372671;32;34375;-75
2022/05/12 11:50:27;;;;;;;5.22;3.58;;;;;;;34.12;28.63;99327.53;4377187;32;34460;-75
2022/05/12 11:53:17;;;;;;;6.63;3.57;;;;;;;34.26;28.91;99334.12;4375140;32;35905;-73
2022/05/12 11:56:03;;;;;;;5.53;3.20;;;;;;;33.85;29.11;99330.53;4377147;32;35236;-74
2022/05/12 11:58:41;;;;;;;4.22;2.87;;;;;;;34.22;28.78;99323.81;4376608;32;34152;-75
2022/05/12 12:01:34;;;;;;;5.15;3.05;;;;;;;34.07;26.99;99327.19;4366063;32;34766;-75
2022/05/12 12:04:04;;;;;;;7.03;3.00;;;;;;;34.30;28.21;99321.13;4376139;32;35824;-75
2022/05/12 12:06:39;;;;;;;7.75;3.03;;;;;;;33.83;26.84;99317.19;4379360;32;35331;-74
2022/05/12 12:09:37;;;;;;;4.78;2.47;;;;;;;34.21;28.07;99325.69;4365274;32;34309;-75
2022/05/12 12:12:10;;;;;;;4.62;2.87;;;;;;;33.74;29.03;99316.34;4368341;32;34478;-73
2022/05/12 12:14:48;;;;;;;5.15;2.80;;;;;;;34.05;26.99;99314.87;4364484;32;35028;-73
2022/05/12 12:17:25;;;;;;;6.60;3.25;;;;;;;33.66;27.44;99313.63;4378124;32;34449;-74
2022/05/12 12:19:56;;;;;;;5.15;2.58;;;;;;;34.40;24.93;99308.28;4379436;32;34299;-74